航空気象通報

ウインドサーファーのための航空気象通報による風予報です。

9/21-9/23の航空気象通報

2017年09月22日 00時22分46秒 | TAF
羽田空港
TAF RJTT 211105Z 2112/2218 14008KT 9999 FEW020
BECMG 2114/2116 02008KT
BECMG 2122/2200 10012KT
TEMPO 2212/2215 4000 -SHRA BR FEW005 BKN008
日本時間21日21-23時:140度から8ノットの風
23時-22日01時:風が変化
01-07時:020度から8ノットの風
07-09時:風が変化
09時-23日03時:100度から12ノットの風

但し、22日21-24時の間:時々

静岡空港
TAF RJNS 211105Z 2112/2218 34004KT 9999 FEW030
BECMG 2121/2123 05006KT
TEMPO 2206/2212 4000 SHRA BR FEW005 BKN008
TEMPO 2212/2218 FEW005 BKN008
日本時間21日21時-22日06時:340度から4ノットの風
06-08時:風が変化
08時-23日03時:050度から6ノットの風

但し、22日15-21時の間:時々
但し、22日21時-23日03時の間:時々

福岡空港
TAF RJFF 211108Z 2112/2218 14004KT 9999 FEW025 SCT040
BECMG 2206/2209 02005KT
BECMG 2212/2215 13004KT
日本時間21日21時-22日15時:140度から4ノットの風
15-18時:風が変化
18-21時:020度から5ノットの風
21-24時:風が変化
23日00-03時:130度から4ノットの風


那覇空港
TAF ROAH 211107Z 2112/2218 19008KT 9999 FEW015 SCT025
TEMPO 2200/2203 4000 SHRA FEW010 BKN020 FEW025CB
TEMPO 2203/2206 3000 TSRA FEW010 BKN020 FEW025CB
TEMPO 2206/2209 4000 SHRA FEW010 BKN020 FEW025CB
日本時間21日21時-23日03時:190度から8ノットの風

但し、22日09-12時の間:ときどき
但し、22日12-15時の間:ときどき
但し、22日15-18時の間:ときどき

石垣空港
TAF ROIG 211110Z 2112/2218 17004KT 9999 FEW015 SCT025
TEMPO 2203/2209 4000 SHRA FEW010 BKN020 FEW025CB
日本時間21日21時-23日03時:170度から4ノットの風

但し、22日12-18時の間:ときどき

マウイのカフルイ空港
PHOG 211123Z 2112/2212 05010KT P6SM VCSH FEW030 SCT060
FM211900 05015G23KT P6SM VCSH FEW030 SCT060
FM212100 05020G28KT P6SM FEW030 SCT060
FM220500 05010KT P6SM VCSH FEW030 SCT060 AMD LTD TO VIS AND WIND TIL 211600
ハワイ時間21日02-09時:050度から10ノットの風
09-11時:050度から15ノット、突風23ノット
11-19時:050度から20ノット、突風28ノット
19時-22日02時:050度から10ノットの風


サイパン空港
TAF PGSN 211125Z 2112/2212 09007KT P6SM VCSH SCT021 BKN110
マリアナ時間21日22時-22日22時:090度から7ノットの風
ジャンル:
お天気
コメント   この記事についてブログを書く
この記事をはてなブックマークに追加
« 9/20-9/22の航空気象通報 | トップ | 9/22-9/24の航空気象通報 »
最近の画像もっと見る

コメントを投稿

ブログ作成者から承認されるまでコメントは反映されません。

TAF」カテゴリの最新記事